Fairchild Air Force Base Spokane US
ICAO: KSKA
IATA: SKA
Category: Large
Scheduled Services: No

Elevation: 2461 ft
TransAlt. 18000 ft.

Airport Communications:
SPOKANE APP/DEP:123.75
ATIS:25.762
GND:121.85
WASHINGTON ANG OPS:29.37
PMSV METRO:23.48
COMD POST:31.1
PTD:130
TWR:126.2

KSKA Zoom In..

If you have problems with the map follow the link
https://www.worldairports.se/pages/airport.php?
ICAO=KSKA

Runways:

(A) RW 05 length 13899 ft width 150 ft
ILS 110.30 / hdg 51

(B) RW 23 length 13899 ft width 150 ft
ILS 110.30 / hdg 231

Location; KSKA
Day. 29 / Time. 17.19 Zulu
* Altimeter: 30.18
* Temperature: 03° c. 37.4°f.
* Wind from: 180° Speed 08 kn.
Dewpoint: 03° c.
Visibility: 10 Statute Miles.
Clouds: Overcast 500 ft.

KSKA 291719Z 18008KT 10SM OVC005 03/03 A3018 RMK AO2A CIG 003V005 CIG 003 RWY05 SLP240 $


Wind From 180°
Speed 08 kn.

 
 
jpsmedia worldairports.se 2020   terms of use